Aérodrome :
LOGIN :

S'inscrire | Disclaimer

   EN    FR    IT 

 










Légende :    VFR   VFR Marginal   IFR   IFR Intensif   IFR Très Intensif
Visi : 
Plafond : 
>= 8 km
>= 3000ft
5 à 8 km
1000 à 3000 ft
1500m à 5 km
500 à 1000 ft
800 à 1500m
200 à 500 ft
< 800m
< 200 ft
Symboles :   Orages  Brouillard  Fortes neiges  Fortes précipitations  Vent > 20 kt
SIGMETs :   Divers  Orages  Givrage  Turbulence  Onde Orograph.  Cendres Volcan.






- Altitude de l'aérodrome : 308 ft
- Code IATA : MHG


EDFM - Mannheim-City

DERNIER METAR :
  • 221450Z 34008KT 300V020 CAVOK 14/M03 Q1022

METARs EXPIRÉS :
  • 221420Z 34011KT 310V010 CAVOK 14/M03 Q1022
  • 221350Z 33010KT 300V010 CAVOK 14/M03 Q1023
  • 221320Z 31007KT 270V350 CAVOK 13/M02 Q1023
  • 221250Z 32009KT 270V360 CAVOK 13/M01 Q1023
  • 221220Z 32009KT 280V010 CAVOK 12/M03 Q1023
  • 221150Z 33007KT 270V020 CAVOK 11/M03 Q1023

TAF TAF EDFM
Valide du 22 à 15h jusqu'au 22 à 21h UTC


221400Z 2215/2221 01008KT CAVOK



MET'MAP, la Météo Aéronautique d'un coup d'oeil ! - Copyright ORBIFLY Décembre 2007 - Disclaimer

ORBIFLY MET'MAP TEAM :

Programmation & Développement : Alexandra Zaïnal
Sur une idée originale de : Baudouin d'Aumeries
Assistance à la programmation : Marc-Olivier Méhu
Soutien technique & logistique : Manuel Goepfert

Contact : metmap@orbifly.com




SOURCES & CREDITS :

   NOAA